createdAt,value
2019-05-26T00:02:11.274Z,18.70
2019-05-26T00:04:38.997Z,18.70
2019-05-26T00:07:06.867Z,18.70
2019-05-26T00:09:35.079Z,18.80
2019-05-26T00:12:02.854Z,18.70
2019-05-26T00:14:30.764Z,18.70
2019-05-26T00:16:58.566Z,18.70
2019-05-26T00:19:26.356Z,18.80
2019-05-26T00:21:54.148Z,18.70
2019-05-26T00:24:24.927Z,18.70
2019-05-26T00:26:52.798Z,18.70
2019-05-26T00:29:20.712Z,18.70
2019-05-26T00:31:51.595Z,18.70
2019-05-26T00:34:19.333Z,18.70
2019-05-26T00:36:49.022Z,18.70
2019-05-26T00:39:16.589Z,18.70
2019-05-26T00:41:44.380Z,18.70
2019-05-26T00:44:12.208Z,18.70
2019-05-26T00:46:40.124Z,18.70
2019-05-26T00:49:08.038Z,18.70
2019-05-26T00:51:36.341Z,18.70
2019-05-26T00:54:04.662Z,18.70
2019-05-26T00:56:32.431Z,18.70
2019-05-26T00:59:00.333Z,18.70
2019-05-26T01:01:28.135Z,18.70
2019-05-26T01:03:55.863Z,18.70
2019-05-26T01:06:23.731Z,18.70
2019-05-26T01:08:51.929Z,18.60
2019-05-26T01:11:19.718Z,18.60
2019-05-26T01:13:49.750Z,18.60
2019-05-26T01:16:20.645Z,18.60
2019-05-26T01:18:48.650Z,18.60
2019-05-26T01:21:16.522Z,18.60
2019-05-26T01:23:44.354Z,18.60
2019-05-26T01:26:12.152Z,18.60
2019-05-26T01:28:40.073Z,18.60
2019-05-26T01:31:07.948Z,18.60
2019-05-26T01:33:35.754Z,18.60
2019-05-26T01:36:03.546Z,18.60
2019-05-26T01:38:31.751Z,18.60
2019-05-26T01:40:59.533Z,18.60
2019-05-26T01:43:27.427Z,18.60
2019-05-26T01:45:55.324Z,18.60
2019-05-26T01:48:23.096Z,18.60
2019-05-26T01:50:50.900Z,18.60
2019-05-26T01:53:20.431Z,18.60
2019-05-26T01:55:48.653Z,18.60
2019-05-26T01:58:16.426Z,18.60
2019-05-26T02:00:44.443Z,18.60
2019-05-26T02:03:12.169Z,18.60
2019-05-26T02:05:40.024Z,18.60
2019-05-26T02:08:11.609Z,18.60
2019-05-26T02:10:37.653Z,18.60
2019-05-26T02:13:05.546Z,18.60
2019-05-26T02:15:33.424Z,18.60
2019-05-26T02:18:01.309Z,18.60
2019-05-26T02:20:29.427Z,18.60
2019-05-26T02:22:57.219Z,18.50
2019-05-26T02:25:25.012Z,18.60
2019-05-26T02:27:52.799Z,18.50
2019-05-26T02:30:20.810Z,18.50
2019-05-26T02:32:48.534Z,18.50
2019-05-26T02:35:16.346Z,18.50
2019-05-26T02:37:44.163Z,18.50
2019-05-26T02:40:11.976Z,18.60
2019-05-26T02:42:40.178Z,18.50
2019-05-26T02:45:08.143Z,18.50
2019-05-26T02:47:35.933Z,18.50
2019-05-26T02:50:04.775Z,18.50
2019-05-26T02:52:32.560Z,18.50
2019-05-26T02:55:00.365Z,18.50
2019-05-26T02:57:28.176Z,18.50
2019-05-26T02:59:56.408Z,18.50
2019-05-26T03:02:24.199Z,18.50
2019-05-26T03:04:51.978Z,18.50
2019-05-26T03:07:19.914Z,18.50
2019-05-26T03:09:51.409Z,18.50
2019-05-26T03:12:19.312Z,18.50
2019-05-26T03:14:49.838Z,18.50
2019-05-26T03:17:20.301Z,18.50
2019-05-26T03:19:48.882Z,18.50
2019-05-26T03:22:18.092Z,18.50
2019-05-26T03:24:45.896Z,18.50
2019-05-26T03:27:13.800Z,18.50
2019-05-26T03:29:41.603Z,18.50
2019-05-26T03:32:09.346Z,18.50
2019-05-26T03:34:37.194Z,18.50
2019-05-26T03:37:04.993Z,18.50
2019-05-26T03:39:44.370Z,18.40
2019-05-26T03:42:02.522Z,18.50
2019-05-26T03:44:30.417Z,18.40
2019-05-26T03:46:58.204Z,18.40
2019-05-26T03:49:25.995Z,18.40
2019-05-26T03:51:53.742Z,18.40
2019-05-26T03:54:21.594Z,18.50
2019-05-26T03:56:49.676Z,18.50
2019-05-26T03:59:17.699Z,18.40
2019-05-26T04:01:45.418Z,18.50
2019-05-26T04:04:13.252Z,18.50
2019-05-26T04:06:41.159Z,18.60
2019-05-26T04:09:09.136Z,18.60
2019-05-26T04:11:36.881Z,18.70
2019-05-26T04:14:04.697Z,18.70
2019-05-26T04:16:32.524Z,18.70
2019-05-26T04:19:00.244Z,18.70
2019-05-26T04:21:27.983Z,18.70
2019-05-26T04:23:55.822Z,18.70
2019-05-26T04:26:23.619Z,18.70
2019-05-26T04:28:51.533Z,18.70
2019-05-26T04:31:19.293Z,18.70
2019-05-26T04:33:47.142Z,18.70
2019-05-26T04:36:14.943Z,18.70
2019-05-26T04:38:42.737Z,18.70
2019-05-26T04:41:10.626Z,18.70
2019-05-26T04:43:39.560Z,18.60
2019-05-26T04:46:07.360Z,18.60
2019-05-26T04:48:35.251Z,18.70
2019-05-26T04:51:02.968Z,18.70
2019-05-26T04:53:30.696Z,18.70
2019-05-26T04:55:58.862Z,18.80
2019-05-26T04:58:26.770Z,18.80
2019-05-26T05:00:54.769Z,18.80
2019-05-26T05:03:22.488Z,18.80
2019-05-26T05:05:50.304Z,18.80
2019-05-26T05:08:18.204Z,18.90
2019-05-26T05:10:45.915Z,18.90
2019-05-26T05:13:13.640Z,18.80
2019-05-26T05:15:41.487Z,18.80
2019-05-26T05:18:09.297Z,18.80
2019-05-26T05:20:37.192Z,18.80
2019-05-26T05:23:05.193Z,18.80
2019-05-26T05:25:33.303Z,18.80
2019-05-26T05:28:01.199Z,18.80
2019-05-26T05:30:29.293Z,18.80
2019-05-26T05:32:57.410Z,18.60
2019-05-26T05:35:25.411Z,18.60
2019-05-26T05:37:53.197Z,18.60
2019-05-26T05:40:20.886Z,18.70
2019-05-26T05:42:48.788Z,18.70
2019-05-26T05:45:16.513Z,18.60
2019-05-26T05:47:45.013Z,18.60
2019-05-26T05:50:12.918Z,18.60
2019-05-26T05:52:40.626Z,18.70
2019-05-26T05:55:09.476Z,18.80
2019-05-26T05:57:37.196Z,18.80
2019-05-26T06:00:06.669Z,18.80
2019-05-26T06:02:34.392Z,18.90
2019-05-26T06:05:02.202Z,18.90
2019-05-26T06:07:29.936Z,18.90
2019-05-26T06:09:57.653Z,18.90
2019-05-26T06:12:25.376Z,18.80
2019-05-26T06:14:53.140Z,18.80
2019-05-26T06:17:21.002Z,18.80
2019-05-26T06:19:48.801Z,18.80
2019-05-26T06:22:16.666Z,18.80
2019-05-26T06:24:44.391Z,18.80
2019-05-26T06:27:12.120Z,18.80
2019-05-26T06:29:40.266Z,18.80
2019-05-26T06:32:10.569Z,18.90
2019-05-26T06:34:39.550Z,18.90
2019-05-26T06:37:07.271Z,18.90
2019-05-26T06:39:35.025Z,18.90
2019-05-26T06:42:02.758Z,18.90
2019-05-26T06:44:30.532Z,18.90
2019-05-26T06:46:58.234Z,18.90
2019-05-26T06:49:25.982Z,18.90
2019-05-26T06:51:53.978Z,19.00
2019-05-26T06:54:21.731Z,19.00
2019-05-26T06:56:49.461Z,18.90
2019-05-26T06:59:17.202Z,18.70
2019-05-26T07:01:45.034Z,18.70
2019-05-26T07:04:12.940Z,18.70
2019-05-26T07:06:40.674Z,18.70
2019-05-26T07:09:09.567Z,18.70
2019-05-26T07:11:52.087Z,18.70
2019-05-26T07:14:06.699Z,18.70
2019-05-26T07:16:38.010Z,18.70
2019-05-26T07:19:03.827Z,18.80
2019-05-26T07:21:31.926Z,18.80
2019-05-26T07:23:59.682Z,18.90
2019-05-26T07:26:27.405Z,19.00
2019-05-26T07:28:55.133Z,19.10
2019-05-26T07:31:23.151Z,19.20
2019-05-26T07:33:50.871Z,19.30
2019-05-26T07:36:18.725Z,19.40
2019-05-26T07:38:46.495Z,19.40
2019-05-26T07:41:14.561Z,19.40
2019-05-26T07:43:42.284Z,19.40
2019-05-26T07:46:10.039Z,19.50
2019-05-26T07:48:38.346Z,19.40
2019-05-26T07:51:06.063Z,19.40
2019-05-26T07:53:33.797Z,19.40
2019-05-26T07:56:01.532Z,19.40
2019-05-26T07:58:29.256Z,19.40
2019-05-26T08:00:57.016Z,19.40
2019-05-26T08:03:24.734Z,19.40
2019-05-26T08:05:52.813Z,19.40
2019-05-26T08:08:21.015Z,19.30
2019-05-26T08:10:49.127Z,19.40
2019-05-26T08:13:16.864Z,19.40
2019-05-26T08:15:45.096Z,19.40
2019-05-26T08:18:13.287Z,19.40
2019-05-26T08:20:42.876Z,19.40
2019-05-26T08:23:10.899Z,19.40
2019-05-26T08:25:42.114Z,19.40
2019-05-26T08:28:10.112Z,19.40
2019-05-26T08:30:38.605Z,19.40
2019-05-26T08:33:07.011Z,19.30
2019-05-26T08:35:35.301Z,19.30
2019-05-26T08:38:03.501Z,19.20
2019-05-26T08:40:31.454Z,19.20
2019-05-26T08:42:59.591Z,19.20
2019-05-26T08:45:27.827Z,19.30
2019-05-26T08:47:56.064Z,19.30
2019-05-26T08:50:24.148Z,19.30
2019-05-26T08:52:52.424Z,19.30
2019-05-26T08:55:21.188Z,19.30
2019-05-26T08:57:49.683Z,19.30
2019-05-26T09:00:17.495Z,19.30
2019-05-26T09:02:46.498Z,19.30
2019-05-26T09:05:14.336Z,19.30
2019-05-26T09:07:42.851Z,19.30
2019-05-26T09:10:11.008Z,19.30
2019-05-26T09:12:42.012Z,19.40
2019-05-26T09:15:10.137Z,19.40
2019-05-26T09:17:41.474Z,19.40
2019-05-26T09:20:11.568Z,19.40
2019-05-26T09:22:39.945Z,19.40
2019-05-26T09:25:10.937Z,19.40
2019-05-26T09:27:39.736Z,19.40
2019-05-26T09:30:10.380Z,19.40
2019-05-26T09:32:41.228Z,19.40
2019-05-26T09:35:12.206Z,19.40
2019-05-26T09:37:39.978Z,19.40
2019-05-26T09:40:10.359Z,19.40
2019-05-26T09:42:39.134Z,19.40
2019-05-26T09:45:11.527Z,19.40
2019-05-26T09:47:40.032Z,19.50
2019-05-26T09:50:07.955Z,19.40
2019-05-26T09:52:36.364Z,19.40
2019-05-26T09:55:08.201Z,19.40
2019-05-26T09:57:36.239Z,19.40
2019-05-26T10:00:09.537Z,19.40
2019-05-26T10:02:38.641Z,19.40
2019-05-26T10:05:06.807Z,19.40
2019-05-26T10:07:35.205Z,19.40
2019-05-26T10:10:04.605Z,19.30
2019-05-26T10:12:33.200Z,19.30
2019-05-26T10:15:02.001Z,19.30
2019-05-26T10:17:30.601Z,19.30
2019-05-26T10:19:58.712Z,19.20
2019-05-26T10:22:26.863Z,19.20
2019-05-26T10:24:54.850Z,19.20
2019-05-26T10:27:23.548Z,19.20
2019-05-26T10:29:51.507Z,19.20
2019-05-26T10:32:20.227Z,19.20
2019-05-26T10:34:48.514Z,19.20
2019-05-26T10:37:17.426Z,19.20
2019-05-26T10:39:52.364Z,19.20
2019-05-26T10:42:20.417Z,19.20
2019-05-26T10:44:48.579Z,19.20
2019-05-26T10:47:16.949Z,19.30
2019-05-26T10:49:45.541Z,19.30
2019-05-26T10:52:13.869Z,19.30
2019-05-26T10:54:42.111Z,19.30
2019-05-26T10:57:10.708Z,19.30
2019-05-26T10:59:40.576Z,19.20
2019-05-26T11:02:08.935Z,19.20
2019-05-26T11:04:37.380Z,19.20
2019-05-26T11:07:06.427Z,19.20
2019-05-26T11:09:35.246Z,19.20
2019-05-26T11:12:03.848Z,19.20
2019-05-26T11:14:33.309Z,19.20
2019-05-26T11:17:02.038Z,19.20
2019-05-26T11:19:30.853Z,19.20
2019-05-26T11:21:59.111Z,19.20
2019-05-26T11:24:27.536Z,19.20
2019-05-26T11:27:07.170Z,19.20
2019-05-26T11:29:26.058Z,19.10
2019-05-26T11:31:54.359Z,19.10
2019-05-26T11:34:22.495Z,19.20
2019-05-26T11:36:50.840Z,19.20
2019-05-26T11:39:19.425Z,19.20
2019-05-26T11:41:54.677Z,19.30
2019-05-26T11:44:18.825Z,19.30
2019-05-26T11:46:47.163Z,19.30
2019-05-26T11:49:16.329Z,19.40
2019-05-26T11:51:48.095Z,19.40
2019-05-26T11:54:18.818Z,19.40
2019-05-26T11:56:47.704Z,19.40
2019-05-26T11:59:15.887Z,19.40
2019-05-26T12:01:43.952Z,19.50
2019-05-26T12:04:12.700Z,19.50
2019-05-26T12:06:41.061Z,19.50
2019-05-26T12:09:12.875Z,19.50
2019-05-26T12:11:41.249Z,19.50
2019-05-26T12:14:12.881Z,19.50
2019-05-26T12:16:41.068Z,19.50
2019-05-26T12:19:12.794Z,19.50
2019-05-26T12:21:40.981Z,19.50
2019-05-26T12:24:09.276Z,19.50
2019-05-26T12:26:37.330Z,19.50
2019-05-26T12:29:05.392Z,19.50
2019-05-26T12:31:33.950Z,19.50
2019-05-26T12:34:02.417Z,19.50
2019-05-26T12:36:30.316Z,19.50
2019-05-26T12:38:58.740Z,19.50
2019-05-26T12:41:27.601Z,19.50
2019-05-26T12:43:56.130Z,19.50
2019-05-26T12:46:24.512Z,19.50
2019-05-26T12:48:53.425Z,19.50
2019-05-26T12:51:21.741Z,19.50
2019-05-26T12:53:50.050Z,19.50
2019-05-26T12:56:18.620Z,19.50
2019-05-26T12:58:46.852Z,19.50
2019-05-26T13:01:15.021Z,19.40
2019-05-26T13:03:43.181Z,19.50
2019-05-26T13:06:10.960Z,19.40
2019-05-26T13:08:40.629Z,19.40
2019-05-26T13:11:11.091Z,19.40
2019-05-26T13:13:40.507Z,19.40
2019-05-26T13:16:08.849Z,19.40
2019-05-26T13:18:36.582Z,19.40
2019-05-26T13:21:04.378Z,19.40
2019-05-26T13:23:32.256Z,19.40
2019-05-26T13:26:00.166Z,19.40
2019-05-26T13:28:27.878Z,19.40
2019-05-26T13:30:55.766Z,19.40
2019-05-26T13:33:23.558Z,19.40
2019-05-26T13:35:51.446Z,19.30
2019-05-26T13:38:19.169Z,19.30
2019-05-26T13:40:46.894Z,19.30
2019-05-26T13:43:14.924Z,19.30
2019-05-26T13:45:42.727Z,19.30
2019-05-26T13:48:11.345Z,19.30
2019-05-26T13:50:41.934Z,19.30
2019-05-26T13:53:13.013Z,19.30
2019-05-26T13:55:41.004Z,19.30
2019-05-26T13:58:10.622Z,19.30
2019-05-26T14:00:39.429Z,19.20
2019-05-26T14:03:09.671Z,19.20
2019-05-26T14:05:37.132Z,19.20
2019-05-26T14:08:04.850Z,19.20
2019-05-26T14:10:34.229Z,19.20
2019-05-26T14:13:02.169Z,19.20
2019-05-26T14:15:38.101Z,19.20
2019-05-26T14:17:59.531Z,19.20
2019-05-26T14:20:40.065Z,19.20
2019-05-26T14:23:08.199Z,19.30
2019-05-26T14:25:36.102Z,19.40
2019-05-26T14:28:04.263Z,19.50
2019-05-26T14:30:34.059Z,19.60
2019-05-26T14:33:02.761Z,19.70
2019-05-26T14:35:30.801Z,19.70
2019-05-26T14:37:59.117Z,19.80
2019-05-26T14:40:27.112Z,19.70
2019-05-26T14:42:54.991Z,19.70
2019-05-26T14:45:22.886Z,19.70
2019-05-26T14:47:50.669Z,19.70
2019-05-26T14:50:18.572Z,19.70
2019-05-26T14:52:46.455Z,19.70
2019-05-26T14:55:14.270Z,19.70
2019-05-26T14:57:43.539Z,19.70
2019-05-26T15:00:12.656Z,19.70
2019-05-26T15:02:41.109Z,19.70
2019-05-26T15:05:11.978Z,19.70
2019-05-26T15:07:43.184Z,19.70
2019-05-26T15:10:11.206Z,19.70
2019-05-26T15:12:39.284Z,19.70
2019-05-26T15:15:07.362Z,19.70
2019-05-26T15:17:35.284Z,19.70
2019-05-26T15:20:03.293Z,19.70
2019-05-26T15:22:31.207Z,19.60
2019-05-26T15:24:58.990Z,19.60
2019-05-26T15:27:26.921Z,19.60
2019-05-26T15:29:54.719Z,19.60
2019-05-26T15:32:22.646Z,19.60
2019-05-26T15:34:50.449Z,19.60
2019-05-26T15:37:18.349Z,19.60
2019-05-26T15:39:46.139Z,19.60
2019-05-26T15:42:14.031Z,19.60
2019-05-26T15:44:42.142Z,19.60
2019-05-26T15:47:10.250Z,19.60
2019-05-26T15:49:40.029Z,19.60
2019-05-26T15:52:08.208Z,19.60
2019-05-26T15:54:36.133Z,19.60
2019-05-26T15:57:04.006Z,19.60
2019-05-26T15:59:31.783Z,19.60
2019-05-26T16:01:59.592Z,19.60
2019-05-26T16:04:27.392Z,19.50
2019-05-26T16:06:55.286Z,19.50
2019-05-26T16:09:23.077Z,19.50
2019-05-26T16:11:50.862Z,19.50
2019-05-26T16:14:18.773Z,19.50
2019-05-26T16:16:46.611Z,19.50
2019-05-26T16:19:14.624Z,19.50
2019-05-26T16:21:42.480Z,19.50
2019-05-26T16:24:10.270Z,19.50
2019-05-26T16:26:40.426Z,19.50
2019-05-26T16:29:11.344Z,19.50
2019-05-26T16:31:42.302Z,19.50
2019-05-26T16:34:10.118Z,19.50
2019-05-26T16:36:38.249Z,19.40
2019-05-26T16:39:06.339Z,19.50
2019-05-26T16:41:34.224Z,19.40
2019-05-26T16:44:02.162Z,19.40
2019-05-26T16:46:29.957Z,19.40
2019-05-26T16:48:57.678Z,19.40
2019-05-26T16:51:25.450Z,19.40
2019-05-26T16:53:53.614Z,19.40
2019-05-26T16:56:21.515Z,19.50
2019-05-26T16:58:49.242Z,19.40
2019-05-26T17:01:17.050Z,19.40
2019-05-26T17:03:44.789Z,19.40
2019-05-26T17:06:12.655Z,19.40
2019-05-26T17:08:40.464Z,19.40
2019-05-26T17:11:10.935Z,19.30
2019-05-26T17:13:40.904Z,19.40
2019-05-26T17:16:10.688Z,19.40
2019-05-26T17:18:41.223Z,19.40
2019-05-26T17:21:12.410Z,19.40
2019-05-26T17:23:40.118Z,19.30
2019-05-26T17:26:08.012Z,19.30
2019-05-26T17:28:35.929Z,19.30
2019-05-26T17:31:03.915Z,19.30
2019-05-26T17:33:31.695Z,19.20
2019-05-26T17:35:59.410Z,19.20
2019-05-26T17:38:27.157Z,19.20
2019-05-26T17:40:55.356Z,19.20
2019-05-26T17:43:23.085Z,19.20
2019-05-26T17:45:50.810Z,19.20
2019-05-26T17:48:18.661Z,19.10
2019-05-26T17:50:46.442Z,19.10
2019-05-26T17:53:14.245Z,19.10
2019-05-26T17:55:42.330Z,19.10
2019-05-26T17:58:10.576Z,19.10
2019-05-26T18:00:41.467Z,19.10
2019-05-26T18:03:11.916Z,19.10
2019-05-26T18:05:42.576Z,19.10
2019-05-26T18:08:10.328Z,19.10
2019-05-26T18:10:40.216Z,19.10
2019-05-26T18:13:09.591Z,19.10
2019-05-26T18:15:37.439Z,19.10
2019-05-26T18:18:05.192Z,19.10
2019-05-26T18:20:32.919Z,19.10
2019-05-26T18:23:00.694Z,19.10
2019-05-26T18:25:28.855Z,19.10
2019-05-26T18:27:56.685Z,19.10
2019-05-26T18:30:24.405Z,19.10
2019-05-26T18:32:52.455Z,19.10
2019-05-26T18:35:20.563Z,19.10
2019-05-26T18:37:48.290Z,19.10
2019-05-26T18:40:16.592Z,19.10
2019-05-26T18:42:44.445Z,19.20
2019-05-26T18:45:12.250Z,19.20
2019-05-26T18:47:40.392Z,19.20
2019-05-26T18:50:10.464Z,19.20
2019-05-26T18:52:41.299Z,19.20
2019-05-26T18:55:12.053Z,19.10
2019-05-26T18:57:42.870Z,19.20
2019-05-26T19:00:11.273Z,19.20
2019-05-26T19:02:39.453Z,19.20
2019-05-26T19:05:07.257Z,19.20
2019-05-26T19:07:35.341Z,19.20
2019-05-26T19:10:03.685Z,19.30
2019-05-26T19:12:31.508Z,19.40
2019-05-26T19:14:59.312Z,19.60
2019-05-26T19:17:27.144Z,19.60
2019-05-26T19:19:54.882Z,19.70
2019-05-26T19:22:22.609Z,19.80
2019-05-26T19:24:50.337Z,19.80
2019-05-26T19:27:18.054Z,19.80
2019-05-26T19:29:46.136Z,19.80
2019-05-26T19:32:13.863Z,19.80
2019-05-26T19:34:41.597Z,19.80
2019-05-26T19:37:10.977Z,19.80
2019-05-26T19:39:40.338Z,19.70
2019-05-26T19:42:10.879Z,19.70
2019-05-26T19:44:40.259Z,19.70
2019-05-26T19:47:10.833Z,19.60
2019-05-26T19:49:40.275Z,19.60
2019-05-26T19:52:10.487Z,19.60
2019-05-26T19:54:39.006Z,19.60
2019-05-26T19:57:07.096Z,19.70
2019-05-26T19:59:35.192Z,19.70
2019-05-26T20:02:17.423Z,19.60
2019-05-26T20:04:32.320Z,19.60
2019-05-26T20:07:00.045Z,19.60
2019-05-26T20:09:27.903Z,19.50
2019-05-26T20:11:55.811Z,19.50
2019-05-26T20:14:23.783Z,19.40
2019-05-26T20:16:51.503Z,19.40
2019-05-26T20:19:19.506Z,19.40
2019-05-26T20:21:47.237Z,19.40
2019-05-26T20:24:15.311Z,19.30
2019-05-26T20:26:43.043Z,19.30
2019-05-26T20:29:10.832Z,19.30
2019-05-26T20:31:40.210Z,19.30
2019-05-26T20:34:09.779Z,19.30
2019-05-26T20:36:39.547Z,19.20
2019-05-26T20:39:07.888Z,19.30
2019-05-26T20:41:35.607Z,19.20
2019-05-26T20:44:03.336Z,19.30
2019-05-26T20:46:31.107Z,19.20
2019-05-26T20:48:58.804Z,19.20
2019-05-26T20:51:26.538Z,19.20
2019-05-26T20:53:54.264Z,19.20
2019-05-26T20:56:21.996Z,19.20
2019-05-26T20:58:49.719Z,19.20
2019-05-26T21:01:17.453Z,19.20
2019-05-26T21:03:45.282Z,19.20
2019-05-26T21:06:13.011Z,19.20
2019-05-26T21:08:40.730Z,19.20
2019-05-26T21:11:08.561Z,19.10
2019-05-26T21:13:36.296Z,19.10
2019-05-26T21:16:04.019Z,19.10
2019-05-26T21:18:32.121Z,19.10
2019-05-26T21:20:59.842Z,19.10
2019-05-26T21:23:27.568Z,19.10
2019-05-26T21:25:55.318Z,19.10
2019-05-26T21:28:23.040Z,19.10
2019-05-26T21:30:50.773Z,19.10
2019-05-26T21:33:18.495Z,19.10
2019-05-26T21:35:46.220Z,19.10
2019-05-26T21:38:13.953Z,19.10
2019-05-26T21:40:41.699Z,19.10
2019-05-26T21:43:09.993Z,19.10
2019-05-26T21:45:37.983Z,19.10
2019-05-26T21:48:05.700Z,19.10
2019-05-26T21:50:33.446Z,19.10
2019-05-26T21:53:01.504Z,19.10
2019-05-26T21:55:29.230Z,19.10
2019-05-26T21:57:56.955Z,19.10
2019-05-26T22:00:26.333Z,19.10
2019-05-26T22:02:54.048Z,19.10
2019-05-26T22:05:21.769Z,19.10
2019-05-26T22:07:49.709Z,19.10
2019-05-26T22:10:17.440Z,19.10
2019-05-26T22:12:45.175Z,19.10
2019-05-26T22:15:12.913Z,19.10
2019-05-26T22:17:40.964Z,19.10
2019-05-26T22:20:10.402Z,19.10
2019-05-26T22:22:40.936Z,19.10
2019-05-26T22:25:10.397Z,19.10
2019-05-26T22:27:38.555Z,19.10
2019-05-26T22:30:06.959Z,19.10
2019-05-26T22:32:34.994Z,19.10
2019-05-26T22:35:02.997Z,19.10
2019-05-26T22:37:30.763Z,19.10
2019-05-26T22:39:58.804Z,19.10
2019-05-26T22:42:26.570Z,19.10
2019-05-26T22:44:54.274Z,19.00
2019-05-26T22:47:22.020Z,19.10
2019-05-26T22:49:49.878Z,19.10
2019-05-26T22:52:18.037Z,19.10
2019-05-26T22:54:45.831Z,19.10
2019-05-26T22:57:13.598Z,19.00
2019-05-26T22:59:41.336Z,19.10
2019-05-26T23:02:11.922Z,19.00
2019-05-26T23:04:42.711Z,19.00
2019-05-26T23:07:10.496Z,19.00
2019-05-26T23:09:38.643Z,19.00
2019-05-26T23:12:06.405Z,19.00
2019-05-26T23:14:34.120Z,19.00
2019-05-26T23:17:01.866Z,19.00
2019-05-26T23:19:29.692Z,19.00
2019-05-26T23:21:57.414Z,19.00
2019-05-26T23:24:25.164Z,19.00
2019-05-26T23:26:52.898Z,19.00
2019-05-26T23:29:20.615Z,19.00
2019-05-26T23:31:48.445Z,19.00
2019-05-26T23:34:16.150Z,19.00
2019-05-26T23:36:43.879Z,19.00
2019-05-26T23:39:11.650Z,19.00
2019-05-26T23:41:40.995Z,19.00
2019-05-26T23:44:10.771Z,19.00
2019-05-26T23:46:38.658Z,19.00
2019-05-26T23:49:06.688Z,19.00
2019-05-26T23:51:34.431Z,19.00
2019-05-26T23:54:02.379Z,19.00
2019-05-26T23:56:30.190Z,19.00
2019-05-26T23:58:58.427Z,19.00
